Time;durP1;ratioP1;P1;durP2;ratioP2;P2;SDS_P1;SDS_P2;PMS_P1;PMS_P2;Temp;Humidity;BMP_temperature;BMP_pressure;BME280_temperature;BME280_humidity;BME280_pressure;Samples;Min_cycle;Max_cycle;Signal;HPM_P1;HPM_P2
2023/08/20 00:03:02;;;;;;;6.93;4.35;;;22.60;95.60;;;;;;10363082;28;20774;-66
2023/08/20 00:08:04;;;;;;;6.70;4.13;;;22.60;95.60;;;;;;10360692;28;20420;-64
2023/08/20 00:13:04;;;;;;;6.47;4.22;;;22.50;95.60;;;;;;10358950;28;20400;-63
2023/08/20 00:18:05;;;;;;;6.20;4.10;;;22.50;95.60;;;;;;10359862;28;20393;-65
2023/08/20 00:23:07;;;;;;;7.22;4.68;;;22.50;95.60;;;;;;10356044;28;20768;-65
2023/08/20 00:28:07;;;;;;;6.32;4.40;;;22.50;95.60;;;;;;10358771;28;20424;-65
2023/08/20 00:33:08;;;;;;;7.07;4.50;;;22.40;95.50;;;;;;10358126;28;20920;-65
2023/08/20 00:38:09;;;;;;;7.13;4.60;;;22.40;95.50;;;;;;10359745;28;20645;-65
2023/08/20 00:43:10;;;;;;;6.70;4.43;;;22.40;95.50;;;;;;10360754;28;20396;-65
2023/08/20 00:48:11;;;;;;;7.43;4.30;;;22.40;95.50;;;;;;10362082;28;20467;-65
2023/08/20 00:53:13;;;;;;;7.53;4.60;;;22.40;95.50;;;;;;10341540;28;20934;-65
2023/08/20 00:58:14;;;;;;;7.03;4.38;;;22.30;95.40;;;;;;10358062;28;20403;-64
2023/08/20 01:03:15;;;;;;;7.43;4.88;;;22.30;95.40;;;;;;10359908;28;20400;-65
2023/08/20 01:08:39;;;;;;;6.30;4.25;;;22.30;95.40;;;;;;10359239;28;20451;-65
2023/08/20 01:13:40;;;;;;;7.20;4.50;;;22.30;95.30;;;;;;10359625;28;20408;-65
2023/08/20 01:18:41;;;;;;;6.97;4.30;;;22.20;95.30;;;;;;10367573;28;20409;-65
2023/08/20 01:24:10;;;;;;;4.77;4.27;;;22.20;95.30;;;;;;10365216;28;20487;-65
2023/08/20 01:29:12;;;;;;;6.20;4.57;;;22.20;95.20;;;;;;10361578;28;20451;-65
2023/08/20 01:34:13;;;;;;;5.75;4.15;;;22.20;95.20;;;;;;10364963;28;20443;-64
2023/08/20 01:39:13;;;;;;;5.00;4.10;;;22.10;95.20;;;;;;10350102;28;20396;-65
2023/08/20 01:44:14;;;;;;;5.60;4.47;;;22.10;95.20;;;;;;10349084;28;20896;-66
2023/08/20 01:49:15;;;;;;;4.80;4.30;;;22.10;95.10;;;;;;10359711;28;20417;-64
2023/08/20 01:54:17;;;;;;;6.63;4.20;;;22.10;95.20;;;;;;10349786;28;21023;-65
2023/08/20 01:59:18;;;;;;;5.57;4.65;;;22.10;95.10;;;;;;10363941;28;20919;-64
2023/08/20 02:04:19;;;;;;;6.25;4.60;;;22.00;95.10;;;;;;10361668;28;20772;-64
2023/08/20 02:09:20;;;;;;;5.10;3.90;;;21.90;95.10;;;;;;10362707;28;20417;-65
2023/08/20 02:14:21;;;;;;;5.72;4.30;;;22.00;95.10;;;;;;10349923;28;20892;-65
2023/08/20 02:19:21;;;;;;;5.15;4.28;;;22.00;95.10;;;;;;10345113;28;20396;-64
2023/08/20 02:24:22;;;;;;;5.93;4.20;;;21.90;95.10;;;;;;10363000;28;20478;-66
2023/08/20 02:29:23;;;;;;;5.47;4.60;;;21.90;95.10;;;;;;10363139;28;20439;-64
2023/08/20 02:34:23;;;;;;;6.60;4.40;;;21.90;95.10;;;;;;10363174;28;20495;-65
2023/08/20 02:39:24;;;;;;;5.73;4.37;;;21.90;95.10;;;;;;10363933;28;20427;-65
2023/08/20 02:44:25;;;;;;;6.60;4.43;;;21.80;95.10;;;;;;10357041;28;20917;-65
2023/08/20 02:49:26;;;;;;;6.05;4.35;;;21.80;95.10;;;;;;10361569;28;20420;-64
2023/08/20 02:54:26;;;;;;;5.22;4.40;;;21.80;95.10;;;;;;10361342;28;20963;-65
2023/08/20 02:59:27;;;;;;;5.30;4.10;;;21.80;95.10;;;;;;10346535;28;20446;-64
2023/08/20 03:04:28;;;;;;;5.65;4.40;;;21.80;95.10;;;;;;10362309;28;20404;-65
2023/08/20 03:09:29;;;;;;;6.53;4.20;;;21.70;95.10;;;;;;10360063;28;20416;-65
2023/08/20 03:14:30;;;;;;;5.03;4.53;;;21.70;95.10;;;;;;10362230;28;20403;-64
2023/08/20 03:19:35;;;;;;;6.10;4.37;;;21.70;95.10;;;;;;10359149;28;20397;-64
2023/08/20 03:24:36;;;;;;;6.05;4.65;;;21.70;95.10;;;;;;10361080;28;20408;-65
2023/08/20 03:29:36;;;;;;;5.53;4.23;;;21.70;95.10;;;;;;10357257;28;20424;-63
2023/08/20 03:34:37;;;;;;;6.63;4.60;;;21.60;95.10;;;;;;10358791;28;20892;-65
2023/08/20 03:39:38;;;;;;;5.80;4.60;;;21.30;95.00;;;;;;10360016;28;20436;-64
2023/08/20 03:44:39;;;;;;;5.95;4.43;;;21.60;95.10;;;;;;10360192;28;20546;-65
2023/08/20 03:49:39;;;;;;;5.55;4.32;;;21.60;95.20;;;;;;10357958;28;20419;-64
2023/08/20 03:54:41;;;;;;;5.72;4.97;;;21.60;95.20;;;;;;10359405;28;20408;-64
2023/08/20 03:59:42;;;;;;;6.47;5.00;;;21.50;95.20;;;;;;10360057;28;20400;-66
2023/08/20 04:04:43;;;;;;;6.70;4.80;;;21.50;95.20;;;;;;10358946;28;20416;-66
2023/08/20 04:09:43;;;;;;;7.40;5.40;;;21.50;95.20;;;;;;10356755;28;20417;-64
2023/08/20 04:14:44;;;;;;;7.67;5.30;;;21.50;95.50;;;;;;10344251;28;20484;-65
2023/08/20 04:19:45;;;;;;;6.80;5.23;;;21.50;95.20;;;;;;10357176;28;20876;-65
2023/08/20 04:24:46;;;;;;;7.72;5.15;;;21.50;95.20;;;;;;10357486;28;20415;-64
2023/08/20 04:29:47;;;;;;;6.97;5.17;;;21.40;95.20;;;;;;10357288;28;20956;-66
2023/08/20 04:34:49;;;;;;;7.67;5.30;;;21.40;95.20;;;;;;10355844;28;20443;-65
2023/08/20 04:39:50;;;;;;;7.38;5.88;;;21.40;95.20;;;;;;10357627;28;20973;-64
2023/08/20 04:44:50;;;;;;;6.07;5.40;;;21.40;95.30;;;;;;10355785;28;20543;-65
2023/08/20 04:49:51;;;;;;;6.03;5.32;;;21.30;95.30;;;;;;10364895;28;20916;-65
2023/08/20 04:54:52;;;;;;;7.07;5.53;;;21.30;95.20;;;;;;10366923;28;20396;-65
2023/08/20 04:59:52;;;;;;;6.18;5.50;;;21.30;95.20;;;;;;10370162;28;20404;-65
2023/08/20 05:04:53;;;;;;;6.47;5.43;;;21.30;95.20;;;;;;10374516;28;20415;-63
2023/08/20 05:09:54;;;;;;;6.13;5.20;;;21.30;95.20;;;;;;10378731;28;20577;-65
2023/08/20 05:14:55;;;;;;;6.73;5.10;;;21.30;95.20;;;;;;10378139;28;20445;-64
2023/08/20 05:19:55;;;;;;;7.47;5.53;;;21.30;95.20;;;;;;10371602;28;20530;-63
2023/08/20 05:24:56;;;;;;;7.03;5.50;;;21.30;95.20;;;;;;10373913;28;20471;-64
2023/08/20 05:29:57;;;;;;;8.97;5.60;;;21.20;95.20;;;;;;10372183;28;20431;-64
2023/08/20 05:34:57;;;;;;;6.43;5.37;;;21.30;95.20;;;;;;10374175;28;20412;-63
2023/08/20 05:39:58;;;;;;;7.53;5.67;;;21.20;95.20;;;;;;10366230;28;20397;-65
2023/08/20 05:44:59;;;;;;;8.30;5.17;;;21.20;95.20;;;;;;10349981;28;20389;-63
2023/08/20 05:49:59;;;;;;;6.13;5.43;;;21.20;95.20;;;;;;10375190;28;21401;-64
2023/08/20 05:55:00;;;;;;;7.53;5.40;;;21.10;95.20;;;;;;10363656;28;20822;-64
2023/08/20 06:00:00;;;;;;;6.67;5.40;;;21.20;95.20;;;;;;10367233;28;20401;-63
2023/08/20 06:05:01;;;;;;;6.60;5.28;;;21.20;95.20;;;;;;10361500;28;20904;-65
2023/08/20 06:10:02;;;;;;;6.13;5.13;;;21.20;95.20;;;;;;10367479;28;20503;-65
2023/08/20 06:15:04;;;;;;;6.97;5.17;;;21.20;95.20;;;;;;10371139;28;20830;-64
2023/08/20 06:20:07;;;;;;;6.70;5.53;;;21.20;95.30;;;;;;10350330;28;20894;-63
2023/08/20 06:25:08;;;;;;;6.45;5.68;;;21.20;95.30;;;;;;10361953;28;20404;-67
2023/08/20 06:30:09;;;;;;;7.60;5.63;;;21.20;95.30;;;;;;10364990;28;20420;-65
2023/08/20 06:35:10;;;;;;;6.77;5.13;;;21.20;95.50;;;;;;10368743;28;20408;-65
2023/08/20 06:40:13;;;;;;;7.00;5.00;;;21.20;95.50;;;;;;10346673;28;20416;-65
2023/08/20 06:45:14;;;;;;;6.97;5.20;;;21.20;95.50;;;;;;10363844;28;20408;-64
2023/08/20 06:50:14;;;;;;;6.97;5.10;;;21.20;95.40;;;;;;10365909;28;20485;-65
2023/08/20 06:55:15;;;;;;;6.47;5.07;;;21.20;95.50;;;;;;10364365;28;20878;-64
2023/08/20 07:00:16;;;;;;;7.40;5.10;;;21.20;95.40;;;;;;10359763;28;20466;-64
2023/08/20 07:05:17;;;;;;;7.87;5.77;;;21.20;95.40;;;;;;10350886;28;20529;-65
2023/08/20 07:10:18;;;;;;;7.57;5.60;;;21.30;95.50;;;;;;10361035;28;20789;-65
2023/08/20 07:15:19;;;;;;;6.23;5.30;;;21.30;95.60;;;;;;10360399;28;20408;-66
2023/08/20 07:20:20;;;;;;;7.15;5.40;;;21.30;95.60;;;;;;10362989;28;20402;-65
2023/08/20 07:25:21;;;;;;;6.50;5.30;;;21.30;95.60;;;;;;10342269;28;20397;-66
2023/08/20 07:30:22;;;;;;;6.28;5.25;;;21.40;95.60;;;;;;10366409;28;20419;-65
2023/08/20 07:35:23;;;;;;;7.70;5.67;;;21.40;95.60;;;;;;10360297;28;20445;-65
2023/08/20 07:40:23;;;;;;;7.60;5.30;;;21.40;95.70;;;;;;10363833;28;20415;-66
2023/08/20 07:45:24;;;;;;;7.27;5.20;;;21.40;95.60;;;;;;10367661;28;20410;-65
2023/08/20 07:50:25;;;;;;;6.77;5.37;;;21.50;95.70;;;;;;10363736;28;20429;-64
2023/08/20 07:55:25;;;;;;;6.63;5.50;;;21.50;95.70;;;;;;10364676;28;20396;-65
2023/08/20 08:00:26;;;;;;;6.20;5.10;;;21.50;95.70;;;;;;10359290;28;20484;-66
2023/08/20 08:05:26;;;;;;;6.87;5.27;;;21.60;95.70;;;;;;10363227;28;20407;-65
2023/08/20 08:10:27;;;;;;;7.83;5.50;;;21.60;96.00;;;;;;10342464;28;20434;-65
2023/08/20 08:15:28;;;;;;;7.30;5.97;;;21.60;95.70;;;;;;10358412;28;20436;-64
2023/08/20 08:20:28;;;;;;;6.77;5.70;;;21.60;95.70;;;;;;10362423;28;20859;-65
2023/08/20 08:25:29;;;;;;;8.73;5.90;;;21.70;95.70;;;;;;10361368;28;20499;-65
2023/08/20 08:30:30;;;;;;;8.13;5.80;;;21.70;95.70;;;;;;10365411;28;20432;-65
2023/08/20 08:35:31;;;;;;;6.95;5.75;;;21.70;95.80;;;;;;10355698;28;20415;-65
2023/08/20 08:40:33;;;;;;;8.50;5.43;;;21.80;95.70;;;;;;10346677;28;20959;-65
2023/08/20 08:45:33;;;;;;;7.90;5.43;;;21.80;95.70;;;;;;10363194;28;20476;-65
2023/08/20 08:50:34;;;;;;;9.27;5.43;;;21.80;95.70;;;;;;10360560;28;20417;-65
2023/08/20 08:55:35;;;;;;;8.70;5.40;;;21.80;95.70;;;;;;10364541;28;20911;-65
2023/08/20 09:00:35;;;;;;;8.30;5.60;;;21.90;95.70;;;;;;10366655;28;20405;-65
2023/08/20 09:06:03;;;;;;;8.20;5.50;;;21.90;95.60;;;;;;10364634;28;20459;-64
2023/08/20 09:11:03;;;;;;;8.13;5.45;;;22.10;95.60;;;;;;10359465;28;20412;-65
2023/08/20 09:16:05;;;;;;;8.27;5.33;;;22.00;95.60;;;;;;10359586;28;20777;-64
2023/08/20 09:21:08;;;;;;;9.07;5.45;;;22.10;95.60;;;;;;10361045;28;20411;-65
2023/08/20 09:26:09;;;;;;;7.90;5.33;;;22.10;95.60;;;;;;10357201;28;21006;-65
2023/08/20 09:31:10;;;;;;;7.40;5.20;;;22.10;95.50;;;;;;10360937;28;20500;-65
2023/08/20 09:36:10;;;;;;;7.83;5.53;;;22.20;95.50;;;;;;10367487;28;20833;-64
2023/08/20 09:41:12;;;;;;;7.50;5.50;;;22.20;95.50;;;;;;10352972;28;20412;-65
2023/08/20 09:46:14;;;;;;;8.02;5.28;;;22.30;95.50;;;;;;10365067;28;21079;-65
2023/08/20 09:51:22;;;;;;;8.18;4.97;;;22.30;95.50;;;;;;10365368;28;20858;-65
2023/08/20 09:56:31;;;;;;;7.27;5.40;;;22.40;95.40;;;;;;10364472;28;20884;-65
2023/08/20 10:01:32;;;;;;;7.63;5.35;;;22.40;95.30;;;;;;10363212;28;20417;-65
2023/08/20 10:06:33;;;;;;;8.87;5.13;;;22.50;95.30;;;;;;10364483;28;20420;-65
2023/08/20 10:11:34;;;;;;;7.25;5.07;;;22.50;95.20;;;;;;10365993;28;20409;-65
2023/08/20 10:16:35;;;;;;;6.53;4.80;;;22.60;95.20;;;;;;10362724;28;20417;-65
2023/08/20 10:21:35;;;;;;;6.63;4.90;;;22.60;95.00;;;;;;10362214;28;20443;-65
2023/08/20 10:26:36;;;;;;;7.40;4.97;;;22.70;95.00;;;;;;10364126;28;20423;-65
2023/08/20 10:31:46;;;;;;;6.40;4.82;;;22.70;94.90;;;;;;10365923;28;20439;-65
2023/08/20 10:36:50;;;;;;;7.20;4.65;;;22.80;94.90;;;;;;10362227;28;20420;-64
2023/08/20 10:42:25;;;;;;;6.17;4.50;;;22.80;94.70;;;;;;10364518;28;20470;-65
2023/08/20 10:47:55;;;;;;;6.72;4.60;;;22.90;94.60;;;;;;10360475;28;20530;-66
2023/08/20 10:52:56;;;;;;;5.28;4.25;;;23.00;94.60;;;;;;10341807;28;20440;-65
2023/08/20 10:57:59;;;;;;;7.20;4.30;;;23.00;94.50;;;;;;10359976;28;20543;-65
2023/08/20 11:03:00;;;;;;;6.83;4.40;;;23.10;94.50;;;;;;10359758;28;20440;-64
2023/08/20 11:08:03;;;;;;;4.73;4.00;;;23.10;94.40;;;;;;10362309;28;20424;-65
2023/08/20 11:13:05;;;;;;;5.50;4.18;;;23.10;94.40;;;;;;10361658;28;20401;-65
2023/08/20 11:18:06;;;;;;;6.80;4.13;;;23.10;94.40;;;;;;10360640;28;20401;-66
2023/08/20 11:23:08;;;;;;;5.95;3.80;;;23.20;94.50;;;;;;10358357;28;20404;-65
2023/08/20 11:28:09;;;;;;;6.55;4.03;;;23.20;94.50;;;;;;10343411;28;20488;-66
2023/08/20 11:33:10;;;;;;;7.60;4.43;;;23.30;94.50;;;;;;10361932;28;20420;-64
2023/08/20 11:38:11;;;;;;;6.20;3.60;;;23.40;94.60;;;;;;10362321;28;20408;-65
2023/08/20 11:43:13;;;;;;;5.25;3.70;;;23.30;94.50;;;;;;10363381;28;20404;-66
2023/08/20 11:48:14;;;;;;;5.57;3.63;;;23.40;94.50;;;;;;10361612;28;20500;-65
2023/08/20 11:53:20;;;;;;;4.35;3.38;;;23.50;94.50;;;;;;10351943;28;20420;-64
2023/08/20 11:58:22;;;;;;;5.63;3.42;;;23.50;94.50;;;;;;10358642;28;20443;-65
2023/08/20 12:03:28;;;;;;;5.10;3.50;;;23.60;94.40;;;;;;10361281;28;20916;-65
2023/08/20 12:08:37;;;;;;;5.22;3.25;;;23.70;94.40;;;;;;10361341;28;20889;-65
2023/08/20 12:13:38;;;;;;;5.78;3.40;;;23.80;94.30;;;;;;10359806;28;20408;-65
2023/08/20 12:18:39;;;;;;;5.45;3.40;;;23.80;94.30;;;;;;10347489;28;20475;-65
2023/08/20 12:23:39;;;;;;;5.20;3.45;;;23.80;94.50;;;;;;10360326;28;20464;-65
2023/08/20 12:28:41;;;;;;;5.47;3.35;;;23.90;94.20;;;;;;10358838;28;20419;-66
2023/08/20 12:33:42;;;;;;;4.93;3.20;;;24.00;94.30;;;;;;10356241;28;20417;-65
2023/08/20 12:38:43;;;;;;;4.40;2.93;;;24.00;94.20;;;;;;10359860;28;20408;-65
2023/08/20 12:43:44;;;;;;;5.40;3.30;;;24.10;94.10;;;;;;10360181;28;20401;-65
2023/08/20 12:48:44;;;;;;;7.28;3.42;;;24.10;94.10;;;;;;10358734;28;20430;-66
2023/08/20 12:53:45;;;;;;;5.10;2.80;;;24.20;94.10;;;;;;10358255;28;20427;-64
2023/08/20 12:58:45;;;;;;;4.10;2.50;;;24.20;94.00;;;;;;10360268;28;20395;-65
2023/08/20 13:03:50;;;;;;;3.70;2.72;;;24.30;94.00;;;;;;10359254;28;20812;-65
2023/08/20 13:08:51;;;;;;;4.90;2.97;;;24.30;94.00;;;;;;10369282;28;20518;-65
2023/08/20 13:13:51;;;;;;;4.57;2.57;;;24.40;93.90;;;;;;10352062;28;20404;-66
2023/08/20 13:18:53;;;;;;;3.37;2.40;;;24.40;93.90;;;;;;10373067;28;20686;-64
2023/08/20 13:23:54;;;;;;;4.07;2.60;;;24.50;94.00;;;;;;10352426;28;20408;-65
2023/08/20 13:28:56;;;;;;;3.33;2.43;;;24.50;94.10;;;;;;10368717;28;20921;-65
2023/08/20 13:34:05;;;;;;;4.70;2.43;;;24.60;94.00;;;;;;10369269;28;20871;-64
2023/08/20 13:39:06;;;;;;;3.45;2.40;;;24.70;93.80;;;;;;10364990;28;20479;-64
2023/08/20 13:44:08;;;;;;;3.00;2.20;;;24.80;93.90;;;;;;10365374;28;20412;-65
2023/08/20 13:49:09;;;;;;;3.03;2.15;;;24.90;93.80;;;;;;10365269;28;20421;-66
2023/08/20 13:54:12;;;;;;;3.47;2.10;;;25.00;94.10;;;;;;10368232;28;20420;-64
2023/08/20 13:59:14;;;;;;;3.45;2.20;;;25.00;94.00;;;;;;10342137;28;20925;-66
2023/08/20 14:04:14;;;;;;;3.65;2.08;;;25.10;94.10;;;;;;10366259;28;20416;-67
2023/08/20 14:09:17;;;;;;;3.67;2.07;;;25.20;93.90;;;;;;10366894;28;20424;-67
2023/08/20 14:14:17;;;;;;;3.80;1.80;;;25.40;93.70;;;;;;10366288;28;20412;-64
2023/08/20 14:19:18;;;;;;;2.17;1.60;;;25.50;91.90;;;;;;10352298;28;20408;-65
2023/08/20 14:24:19;;;;;;;3.07;1.47;;;25.60;92.60;;;;;;10370473;28;20519;-65
2023/08/20 14:29:19;;;;;;;3.00;1.70;;;25.70;92.50;;;;;;10363349;28;20722;-64
2023/08/20 14:34:22;;;;;;;4.13;1.92;;;25.80;92.70;;;;;;10367595;28;20752;-64
2023/08/20 14:39:23;;;;;;;2.37;1.60;;;25.80;92.60;;;;;;10368518;28;20488;-65
2023/08/20 14:44:24;;;;;;;3.00;1.50;;;26.00;92.50;;;;;;10366078;28;20782;-64
2023/08/20 14:49:24;;;;;;;2.73;1.50;;;26.00;92.50;;;;;;10364742;28;20424;-65
2023/08/20 14:54:25;;;;;;;2.55;1.40;;;26.10;92.40;;;;;;10365580;28;20771;-65
2023/08/20 14:59:26;;;;;;;2.77;1.50;;;26.20;92.40;;;;;;10361844;28;20404;-65
2023/08/20 15:04:26;;;;;;;1.97;1.37;;;26.30;92.30;;;;;;10364895;28;20405;-65
2023/08/20 15:09:27;;;;;;;2.30;1.40;;;26.50;92.20;;;;;;10365744;28;20432;-65
2023/08/20 15:14:28;;;;;;;2.60;1.55;;;26.60;92.10;;;;;;10364783;28;20765;-65
2023/08/20 15:19:28;;;;;;;1.93;1.30;;;26.60;91.90;;;;;;10363228;28;20411;-64
2023/08/20 15:24:30;;;;;;;1.57;1.30;;;26.70;91.90;;;;;;10364454;28;20404;-65
2023/08/20 15:29:31;;;;;;;3.47;1.20;;;26.80;91.80;;;;;;10361425;28;20413;-64
2023/08/20 15:34:32;;;;;;;1.80;1.20;;;26.90;91.70;;;;;;10358102;28;20439;-65
2023/08/20 15:39:35;;;;;;;1.60;1.30;;;27.00;91.70;;;;;;10343915;28;20404;-65
2023/08/20 15:44:37;;;;;;;1.97;1.23;;;27.10;91.70;;;;;;10356785;28;20401;-67
2023/08/20 15:49:38;;;;;;;1.80;1.20;;;27.20;91.70;;;;;;10360390;28;20994;-68
2023/08/20 15:54:38;;;;;;;2.23;1.20;;;27.20;91.60;;;;;;10345360;28;20410;-67
2023/08/20 15:59:40;;;;;;;1.75;1.20;;;27.20;90.60;;;;;;10360925;28;20405;-68
2023/08/20 16:04:40;;;;;;;2.85;1.33;;;27.20;91.20;;;;;;10359096;28;20409;-68
2023/08/20 16:09:41;;;;;;;4.60;1.50;;;27.10;91.10;;;;;;10359748;28;20605;-68
2023/08/20 16:14:42;;;;;;;3.37;1.53;;;27.00;91.30;;;;;;10357364;28;20415;-68
2023/08/20 16:19:43;;;;;;;4.15;1.90;;;27.00;91.50;;;;;;10358523;28;20426;-67
2023/08/20 16:24:44;;;;;;;6.97;3.00;;;26.90;91.60;;;;;;10359337;28;20396;-68
2023/08/20 16:29:45;;;;;;;5.27;2.60;;;26.90;91.70;;;;;;10345041;28;20413;-66
2023/08/20 16:34:46;;;;;;;5.47;2.63;;;26.90;91.80;;;;;;10357883;28;20415;-67
2023/08/20 16:39:47;;;;;;;5.87;2.73;;;26.90;92.00;;;;;;10342635;28;20638;-68
2023/08/20 16:44:48;;;;;;;4.93;2.80;;;26.80;92.10;;;;;;10366466;28;20918;-68
2023/08/20 16:49:48;;;;;;;4.90;2.50;;;26.80;92.20;;;;;;10365838;28;20872;-69
2023/08/20 16:54:49;;;;;;;5.77;2.70;;;26.80;92.50;;;;;;10367444;28;20412;-68
2023/08/20 16:59:50;;;;;;;4.27;2.60;;;26.70;92.30;;;;;;10366834;28;20753;-68
2023/08/20 17:04:50;;;;;;;4.83;2.40;;;26.60;92.40;;;;;;10376095;28;20408;-68
2023/08/20 17:09:51;;;;;;;4.93;2.58;;;26.60;92.50;;;;;;10373542;28;20415;-68
2023/08/20 17:14:52;;;;;;;5.27;2.90;;;26.60;92.70;;;;;;10369467;28;20776;-68
2023/08/20 17:19:52;;;;;;;5.67;2.77;;;26.60;92.70;;;;;;10357332;28;20460;-67
2023/08/20 17:24:53;;;;;;;5.40;2.50;;;26.50;92.70;;;;;;10368325;28;20404;-69
2023/08/20 17:29:54;;;;;;;4.97;2.67;;;26.50;92.90;;;;;;10364123;28;20413;-68
2023/08/20 17:34:54;;;;;;;5.70;2.57;;;26.40;92.90;;;;;;10370849;28;20405;-67
2023/08/20 17:39:55;;;;;;;5.15;2.40;;;26.40;92.90;;;;;;10370466;28;20991;-67
2023/08/20 17:44:56;;;;;;;5.32;2.45;;;26.40;92.80;;;;;;10369313;28;20745;-68
2023/08/20 17:49:56;;;;;;;5.47;2.50;;;26.30;92.60;;;;;;10367784;28;20416;-68
2023/08/20 17:54:57;;;;;;;5.63;2.55;;;26.20;92.40;;;;;;10363327;28;20424;-68
2023/08/20 17:59:57;;;;;;;4.53;2.20;;;26.20;91.90;;;;;;10370211;28;20454;-70
2023/08/20 18:04:58;;;;;;;4.43;2.30;;;26.10;92.40;;;;;;10370093;28;20400;-68
2023/08/20 18:10:02;;;;;;;5.25;2.30;;;26.10;92.10;;;;;;10367455;28;20420;-70
2023/08/20 18:15:04;;;;;;;3.95;2.20;;;26.10;92.00;;;;;;10365906;28;20417;-67
2023/08/20 18:20:05;;;;;;;3.60;2.13;;;26.00;92.00;;;;;;10347620;28;20668;-68
2023/08/20 18:25:06;;;;;;;3.88;2.20;;;26.00;92.00;;;;;;10368205;28;20556;-67
2023/08/20 18:30:09;;;;;;;3.60;1.90;;;26.00;92.20;;;;;;10351875;28;20420;-69
2023/08/20 18:35:10;;;;;;;3.78;1.92;;;25.90;92.00;;;;;;10364518;28;22151;-68
2023/08/20 18:40:11;;;;;;;4.05;2.08;;;25.90;91.90;;;;;;10367343;28;20419;-66
2023/08/20 18:45:11;;;;;;;4.03;1.98;;;25.90;91.80;;;;;;10358029;28;20409;-67
2023/08/20 18:50:12;;;;;;;3.23;1.80;;;25.80;91.80;;;;;;10365343;28;20451;-68
2023/08/20 18:55:13;;;;;;;4.23;1.93;;;25.80;91.90;;;;;;10346540;28;20664;-67
2023/08/20 19:00:14;;;;;;;4.70;1.88;;;25.80;92.10;;;;;;10348421;28;20503;-70
2023/08/20 19:05:14;;;;;;;3.83;2.28;;;25.80;91.90;;;;;;10359476;28;20924;-69
2023/08/20 19:10:15;;;;;;;4.20;2.97;;;25.70;91.90;;;;;;10352148;28;20417;-69
2023/08/20 19:15:16;;;;;;;4.35;2.60;;;25.70;91.90;;;;;;10367011;28;20407;-69
2023/08/20 19:20:17;;;;;;;4.20;2.10;;;25.60;92.00;;;;;;10358673;28;20501;-70
2023/08/20 19:25:18;;;;;;;3.87;2.47;;;25.60;91.90;;;;;;10350219;28;20401;-69
2023/08/20 19:30:18;;;;;;;5.10;2.70;;;25.50;92.10;;;;;;10346099;28;20481;-69
2023/08/20 19:35:19;;;;;;;4.50;3.00;;;25.50;92.10;;;;;;10352287;28;20524;-70
2023/08/20 19:40:20;;;;;;;4.38;2.50;;;25.40;92.10;;;;;;10357698;28;20835;-69
2023/08/20 19:45:21;;;;;;;4.13;2.40;;;25.40;92.20;;;;;;10356091;28;20744;-70
2023/08/20 19:50:22;;;;;;;3.70;2.33;;;25.40;92.30;;;;;;10344596;28;20422;-70
2023/08/20 19:55:23;;;;;;;3.40;2.30;;;25.30;92.20;;;;;;10353967;28;20459;-68
2023/08/20 20:00:23;;;;;;;5.18;2.47;;;25.30;92.30;;;;;;10358978;28;20410;-68
2023/08/20 20:05:28;;;;;;;4.40;2.30;;;25.20;92.30;;;;;;10345028;28;21060;-69
2023/08/20 20:10:28;;;;;;;4.40;2.72;;;25.20;92.40;;;;;;10348479;28;20428;-70
2023/08/20 20:15:29;;;;;;;4.53;2.50;;;25.20;92.40;;;;;;10338855;28;20773;-70
2023/08/20 20:20:32;;;;;;;4.70;2.70;;;25.10;92.40;;;;;;10342598;28;20416;-69
2023/08/20 20:25:33;;;;;;;3.90;3.03;;;25.10;92.40;;;;;;10354182;28;20908;-69
2023/08/20 20:30:33;;;;;;;4.53;2.97;;;25.00;92.40;;;;;;10351183;28;20416;-69
2023/08/20 20:35:34;;;;;;;4.30;2.80;;;25.00;92.50;;;;;;10351342;28;20405;-69
2023/08/20 20:40:34;;;;;;;4.73;2.80;;;24.90;92.40;;;;;;10351091;28;20412;-68
2023/08/20 20:45:35;;;;;;;5.20;2.97;;;24.90;92.60;;;;;;10340500;28;20407;-69
2023/08/20 20:50:36;;;;;;;5.50;2.97;;;24.90;92.50;;;;;;10341531;28;20939;-68
2023/08/20 20:55:36;;;;;;;3.67;2.53;;;24.90;92.50;;;;;;10356302;28;20484;-68
2023/08/20 21:00:37;;;;;;;3.87;2.80;;;24.80;92.50;;;;;;10354510;28;20516;-69
2023/08/20 21:05:45;;;;;;;4.37;2.50;;;24.80;92.50;;;;;;10339578;28;20444;-68
2023/08/20 21:10:45;;;;;;;4.93;2.90;;;24.70;92.60;;;;;;10353213;28;20984;-69
2023/08/20 21:15:46;;;;;;;3.93;2.43;;;24.70;92.60;;;;;;10338946;28;20404;-68
2023/08/20 21:20:47;;;;;;;3.93;2.50;;;24.70;92.50;;;;;;10353563;28;20759;-69
2023/08/20 21:25:47;;;;;;;4.10;2.50;;;24.60;92.50;;;;;;10354493;28;20488;-68
2023/08/20 21:30:48;;;;;;;3.85;2.30;;;24.50;92.50;;;;;;10343556;28;20459;-69
2023/08/20 21:35:49;;;;;;;4.20;2.33;;;24.50;92.50;;;;;;10360579;28;20408;-67
2023/08/20 21:40:49;;;;;;;3.80;2.20;;;24.50;92.80;;;;;;10362041;28;20412;-67
2023/08/20 21:45:50;;;;;;;4.40;2.33;;;24.40;92.50;;;;;;10362747;28;20404;-67
2023/08/20 21:50:51;;;;;;;4.30;2.50;;;24.40;92.60;;;;;;10361814;28;20796;-69
2023/08/20 21:55:58;;;;;;;4.77;2.33;;;24.40;92.60;;;;;;10359569;28;20713;-66
2023/08/20 22:01:03;;;;;;;3.75;2.30;;;24.30;92.50;;;;;;10364890;28;20484;-66
2023/08/20 22:06:04;;;;;;;3.47;2.05;;;24.20;92.50;;;;;;10357253;28;20416;-66
2023/08/20 22:11:05;;;;;;;3.85;2.10;;;24.20;92.40;;;;;;10344911;28;20417;-66
2023/08/20 22:16:05;;;;;;;3.53;2.10;;;24.20;92.40;;;;;;10360175;28;20411;-67
2023/08/20 22:21:06;;;;;;;3.50;2.03;;;24.20;92.40;;;;;;10364874;28;20432;-66
2023/08/20 22:26:09;;;;;;;3.00;1.83;;;24.10;92.40;;;;;;10361133;28;20409;-66
2023/08/20 22:31:10;;;;;;;4.50;2.20;;;24.10;92.30;;;;;;10358769;28;20416;-66
2023/08/20 22:36:10;;;;;;;3.27;1.90;;;24.10;92.20;;;;;;10357413;28;20919;-67
2023/08/20 22:41:11;;;;;;;3.78;2.00;;;24.00;92.20;;;;;;10360969;28;20483;-65
2023/08/20 22:46:12;;;;;;;4.53;1.97;;;24.00;92.10;;;;;;10360745;28;20914;-66
2023/08/20 22:51:13;;;;;;;3.30;2.17;;;24.00;92.10;;;;;;10361126;28;20413;-67
2023/08/20 22:56:13;;;;;;;3.40;2.10;;;23.90;92.00;;;;;;10348859;28;20450;-66
2023/08/20 23:01:14;;;;;;;3.00;1.80;;;23.80;92.00;;;;;;10360722;28;20467;-68
2023/08/20 23:06:14;;;;;;;2.90;2.07;;;23.80;91.90;;;;;;10349729;28;20990;-66
2023/08/20 23:11:17;;;;;;;3.93;2.30;;;23.80;91.80;;;;;;10362179;28;20573;-67
2023/08/20 23:16:18;;;;;;;2.60;2.07;;;23.70;91.70;;;;;;10356574;28;20410;-67
2023/08/20 23:21:18;;;;;;;3.83;2.10;;;23.70;91.70;;;;;;10356197;28;20416;-66
2023/08/20 23:26:19;;;;;;;4.07;2.07;;;23.70;91.70;;;;;;10360532;28;20418;-66
2023/08/20 23:31:20;;;;;;;2.97;1.90;;;23.60;91.70;;;;;;10363425;28;20417;-67
2023/08/20 23:36:20;;;;;;;4.40;2.25;;;23.60;91.60;;;;;;10367271;28;20409;-67
2023/08/20 23:41:21;;;;;;;4.00;2.20;;;23.60;91.60;;;;;;10363842;28;20411;-67
2023/08/20 23:46:22;;;;;;;3.63;2.10;;;23.50;91.90;;;;;;10366473;28;20968;-67
2023/08/20 23:51:22;;;;;;;3.77;1.80;;;23.50;91.60;;;;;;10365120;28;20427;-65
2023/08/20 23:56:23;;;;;;;2.67;1.80;;;23.50;91.70;;;;;;10364305;28;20632;-66
